Overview Statistics Trail Chart Weather Telemetry Raw packets
 

This is the latest recevied weather packets stored in our database for station/object KG4GJX. If no packets are shown the sender has not sent any weather packets the latest 10 day(s).

<< 22 23 24 25 26 27 28 >>
Time Temp. Humidity Pressure Rain* Wind** Luminosity Snow
1788153937 22.22° C 100% 1020.6 hPa 0 mm - - -
1788153275 22.22° C 100% 1020.3 hPa 0 mm - - -
1788152612 22.22° C 100% 1020.6 hPa 0 mm - - -
1788150629 22.78° C 100% 1020.3 hPa 0 mm - - -
1788147327 22.78° C 100% 1020.6 hPa 0 mm - - -
1788145347 22.78° C 100% 1020.6 hPa 0 mm - - -
1788143362 23.33° C 100% 1020.6 hPa 0 mm - - -
1788141380 23.89° C 100% 1020.6 hPa 0 mm - - -
1788140717 23.89° C 100% 1020.3 hPa 0 mm - - -
1788139394 24.44° C 100% 1020.3 hPa 0 mm - - -
1788138732 24.44° C 98% 1019.9 hPa 0 mm - - -
1788138069 25° C 97% 1019.9 hPa 0 mm - - -
1788137406 25.56° C 96% 1019.9 hPa 0 mm - - -
1788136744 25.56° C 93% 1019.9 hPa 0 mm - - -
1788136082 26.67° C 90% 1019.9 hPa 0 mm - - -
1788135419 27.22° C 87% 1019.6 hPa 0 mm - - -
1788134757 27.78° C 84% 1019.9 hPa 0 mm - - -
1788134094 28.89° C 81% 1019.9 hPa 0 mm - - -
1788133432 30° C 74% 1019.9 hPa 0 mm - - -
1788132770 30.56° C 67% 1019.9 hPa 0 mm - - -
1788132108 31.11° C 64% 1019.9 hPa 0 mm - - -
1788131445 31.67° C 62% 1019.9 hPa 0 mm - - -
1788130783 32.22° C 60% 1019.9 hPa 0 mm - - -
1788130120 33.33° C 56% 1019.9 hPa 0 mm - - -
1788129458 33.89° C 52% 1019.6 hPa 0 mm - - -

* Rain latest hour (hover to see other rain measurements)
** Current wind speed in m/s (hover to see current wind gust speed)